Middle Wallop, United Kingdom
Current Conditions -  °F | °C
As of 12:50 PM on Sunday 23 Nov 2014 (Local Time) from EGVP Reporting Station
Overcast Overcast  
Wind Chill: 42°   Ceiling: 7000
Heat Index: 46°   Visibility: 6mi
Dew Point: 43°   Wind: 9mph
Humidity: 87%   Direction: 360°N
Pressure: 30.03"   Gusts: NA
Location:  51.15°N, 1.57°W
Report Text: EGVP 231250Z AUTO 36008KT 9999 // OVC070/// 08/06 Q1017
Loading
Personal Weather Stations






























Interactive Weather Map New forecast layout! Learn more

10-Day Weather Forecast

Advertisements
Track Severe Weather on mobile